Time;durP1;ratioP1;P1;durP2;ratioP2;P2;SDS_P1;SDS_P2;PMS_P1;PMS_P2;Temp;Humidity;BMP_temperature;BMP_pressure;BME280_temperature;BME280_humidity;BME280_pressure;Samples;Min_cycle;Max_cycle;Signal;HPM_P1;HPM_P2
2021/03/12 00:02:07;;;;;;;0.80;0.80;;;18.90;22.50;;;;;;5113906;28;20190;-57
2021/03/12 00:04:33;;;;;;;0.80;0.70;;;18.90;22.50;;;;;;5095084;28;20236;-57
2021/03/12 00:06:59;;;;;;;0.80;0.50;;;18.90;22.50;;;;;;5113897;28;20298;-57
2021/03/12 00:09:24;;;;;;;0.63;0.63;;;18.90;22.50;;;;;;5113406;28;20714;-57
2021/03/12 00:11:52;;;;;;;0.67;0.60;;;18.90;22.50;;;;;;5113490;28;20157;-57
2021/03/12 00:14:18;;;;;;;1.30;0.70;;;18.90;22.50;;;;;;5113845;28;20152;-57
2021/03/12 00:16:44;;;;;;;0.80;0.67;;;18.90;22.50;;;;;;5113455;28;20165;-57
2021/03/12 00:19:09;;;;;;;1.10;0.80;;;18.90;22.50;;;;;;5113464;28;20787;-57
2021/03/12 00:21:35;;;;;;;0.87;0.77;;;18.90;22.50;;;;;;5113565;28;20188;-56
2021/03/12 00:24:01;;;;;;;0.87;0.73;;;18.90;22.50;;;;;;5113221;28;20162;-56
2021/03/12 00:26:26;;;;;;;0.93;0.80;;;18.90;22.50;;;;;;5112636;28;20529;-56
2021/03/12 00:28:52;;;;;;;1.17;0.90;;;18.90;22.50;;;;;;5113361;28;20409;-57
2021/03/12 00:31:18;;;;;;;1.23;0.80;;;18.90;22.50;;;;;;5113613;28;20157;-57
2021/03/12 00:33:46;;;;;;;0.60;0.60;;;18.90;22.50;;;;;;5113472;28;20168;-57
2021/03/12 00:36:14;;;;;;;1.05;0.80;;;18.90;22.50;;;;;;5112987;28;20395;-57
2021/03/12 00:38:40;;;;;;;1.42;0.80;;;18.90;22.50;;;;;;5112806;28;20161;-57
2021/03/12 00:41:08;;;;;;;1.23;0.73;;;18.90;22.50;;;;;;5095087;28;20241;-57
2021/03/12 00:43:35;;;;;;;1.38;0.70;;;18.90;22.50;;;;;;5113216;28;20161;-57
2021/03/12 00:46:03;;;;;;;0.80;0.70;;;18.90;22.50;;;;;;5113485;28;20149;-57
2021/03/12 00:48:31;;;;;;;1.17;0.93;;;18.90;22.50;;;;;;5115699;28;20182;-56
2021/03/12 00:51:00;;;;;;;0.90;0.65;;;18.90;22.50;;;;;;5117740;28;20168;-57
2021/03/12 00:53:26;;;;;;;1.23;1.02;;;18.90;22.50;;;;;;5116686;28;20161;-56
2021/03/12 00:55:52;;;;;;;3.08;0.90;;;18.90;22.50;;;;;;5117626;28;20165;-56
2021/03/12 00:58:23;;;;;;;1.02;0.93;;;18.90;22.50;;;;;;5117108;28;20164;-57
2021/03/12 01:00:49;;;;;;;0.77;0.77;;;18.90;22.50;;;;;;5108905;27;20317;-57
2021/03/12 01:03:15;;;;;;;0.95;0.80;;;18.90;22.50;;;;;;5110923;27;20189;-57
2021/03/12 01:05:40;;;;;;;0.80;0.80;;;18.90;22.50;;;;;;5137799;27;20151;-57
2021/03/12 01:08:10;;;;;;;0.83;0.70;;;18.90;22.50;;;;;;5137130;27;20251;-57
2021/03/12 01:10:39;;;;;;;0.90;0.60;;;18.90;22.50;;;;;;5137843;27;20464;-57
2021/03/12 01:13:05;;;;;;;0.80;0.70;;;18.90;22.50;;;;;;5137816;27;20252;-57
2021/03/12 01:15:31;;;;;;;1.10;0.90;;;18.90;22.50;;;;;;5137541;27;20197;-57
2021/03/12 01:17:57;;;;;;;1.00;0.70;;;18.90;22.50;;;;;;5136852;27;20327;-57
2021/03/12 01:20:32;;;;;;;2.15;1.10;;;18.90;22.50;;;;;;5137591;27;20204;-57
2021/03/12 01:22:59;;;;;;;1.27;1.00;;;18.90;22.40;;;;;;5125143;27;20164;-56
2021/03/12 01:25:29;;;;;;;1.55;0.80;;;18.90;22.40;;;;;;5116928;28;20162;-57
2021/03/12 01:27:55;;;;;;;1.38;1.20;;;18.90;22.40;;;;;;5115982;28;20200;-57
2021/03/12 01:30:29;;;;;;;0.80;0.70;;;18.90;22.40;;;;;;5116744;28;20161;-57
2021/03/12 01:32:55;;;;;;;1.42;0.95;;;18.90;22.40;;;;;;5116687;28;20145;-57
2021/03/12 01:35:23;;;;;;;0.80;0.70;;;18.90;22.40;;;;;;5116825;28;20550;-57
2021/03/12 01:37:49;;;;;;;1.00;0.80;;;18.90;22.40;;;;;;5116326;28;20161;-57
2021/03/12 01:40:18;;;;;;;1.07;0.90;;;18.90;22.40;;;;;;5116247;28;20177;-57
2021/03/12 01:42:45;;;;;;;1.27;0.80;;;18.90;22.40;;;;;;5116462;28;20207;-56
2021/03/12 01:45:19;;;;;;;0.80;0.73;;;18.90;22.40;;;;;;5116439;28;20240;-57
2021/03/12 01:47:45;;;;;;;0.70;0.63;;;18.90;22.40;;;;;;5115095;28;20497;-56
2021/03/12 01:50:11;;;;;;;0.70;0.70;;;18.90;22.40;;;;;;5116355;28;20218;-57
2021/03/12 01:52:36;;;;;;;1.30;1.00;;;18.90;22.30;;;;;;5116490;28;20157;-57
2021/03/12 01:55:08;;;;;;;0.80;0.70;;;18.90;22.30;;;;;;5115473;28;20157;-57
2021/03/12 01:57:34;;;;;;;0.90;0.80;;;18.90;22.30;;;;;;5115538;28;20389;-57
2021/03/12 02:00:00;;;;;;;1.02;0.63;;;18.90;22.30;;;;;;5115866;28;20181;-57
2021/03/12 02:02:28;;;;;;;0.90;0.90;;;18.90;22.90;;;;;;5097935;28;20230;-57
2021/03/12 02:04:53;;;;;;;1.17;1.08;;;18.90;22.90;;;;;;5116275;28;20673;-57
2021/03/12 02:07:19;;;;;;;1.17;0.90;;;18.90;22.30;;;;;;5116101;28;20248;-57
2021/03/12 02:09:47;;;;;;;0.80;0.80;;;18.90;22.30;;;;;;5115714;28;20312;-57
2021/03/12 02:12:26;;;;;;;2.20;0.93;;;18.90;22.30;;;;;;5115888;28;20165;-56
2021/03/12 02:15:03;;;;;;;1.02;0.70;;;18.90;22.30;;;;;;5115849;28;20201;-56
2021/03/12 02:17:36;;;;;;;1.13;0.77;;;18.90;22.30;;;;;;5116123;28;20504;-56
2021/03/12 02:20:32;;;;;;;1.63;0.82;;;18.90;22.30;;;;;;5115536;28;20213;-57
2021/03/12 02:23:32;;;;;;;1.05;0.80;;;18.90;22.30;;;;;;5115574;28;20149;-57
2021/03/12 02:26:11;;;;;;;0.60;0.50;;;18.90;22.30;;;;;;5086281;28;20665;-57
2021/03/12 02:28:38;;;;;;;1.10;1.00;;;18.90;22.30;;;;;;5115513;28;20263;-57
2021/03/12 02:31:05;;;;;;;1.27;0.88;;;18.90;22.30;;;;;;5115663;28;20167;-57
2021/03/12 02:33:32;;;;;;;0.80;0.50;;;18.90;22.30;;;;;;5115723;28;20192;-57
2021/03/12 02:36:00;;;;;;;0.85;0.73;;;18.90;22.30;;;;;;5115418;28;20157;-57
2021/03/12 02:38:28;;;;;;;0.80;0.65;;;18.90;22.30;;;;;;5115155;28;20188;-57
2021/03/12 02:40:55;;;;;;;1.45;0.70;;;18.90;22.30;;;;;;5095257;28;20216;-57
2021/03/12 02:43:21;;;;;;;1.33;0.80;;;18.90;22.30;;;;;;5095028;28;20239;-57
2021/03/12 02:45:49;;;;;;;1.70;0.95;;;18.90;22.30;;;;;;5094918;28;20161;-57
2021/03/12 02:48:17;;;;;;;0.70;0.57;;;18.90;22.30;;;;;;5095116;28;20195;-57
2021/03/12 02:50:43;;;;;;;0.70;0.70;;;18.80;22.20;;;;;;5095063;28;20154;-57
2021/03/12 02:53:12;;;;;;;0.80;0.60;;;18.90;22.30;;;;;;5094326;28;20158;-57
2021/03/12 02:55:38;;;;;;;0.80;0.80;;;18.90;22.30;;;;;;5094951;28;20165;-57
2021/03/12 02:58:14;;;;;;;0.90;0.80;;;18.90;22.30;;;;;;5094398;28;20605;-57
2021/03/12 03:00:40;;;;;;;0.70;0.60;;;18.90;22.30;;;;;;5094726;28;20504;-57
2021/03/12 03:03:07;;;;;;;0.95;0.57;;;18.80;22.20;;;;;;5094816;28;20165;-57
2021/03/12 03:05:33;;;;;;;0.70;0.60;;;18.90;22.30;;;;;;5094674;28;20181;-57
2021/03/12 03:08:01;;;;;;;2.70;1.23;;;18.90;22.30;;;;;;5094193;28;20196;-57
2021/03/12 03:10:27;;;;;;;0.82;0.75;;;18.80;22.20;;;;;;5093901;28;20390;-57
2021/03/12 03:12:56;;;;;;;0.80;0.65;;;18.80;22.20;;;;;;5094609;28;20340;-57
2021/03/12 03:15:25;;;;;;;0.75;0.68;;;18.80;22.20;;;;;;5094460;28;20164;-57
2021/03/12 03:17:54;;;;;;;0.70;0.70;;;18.80;22.20;;;;;;5094544;28;20153;-57
2021/03/12 03:20:20;;;;;;;0.98;0.88;;;18.80;22.20;;;;;;5094329;28;20217;-57
2021/03/12 03:22:46;;;;;;;1.05;0.65;;;18.80;22.20;;;;;;5103824;28;20161;-57
2021/03/12 03:25:13;;;;;;;1.00;0.90;;;18.80;22.20;;;;;;5114005;28;20176;-57
2021/03/12 03:27:41;;;;;;;0.95;0.85;;;18.80;22.20;;;;;;5114724;28;20283;-57
2021/03/12 03:30:14;;;;;;;0.70;0.60;;;18.80;22.20;;;;;;5114412;28;20248;-57
2021/03/12 03:32:40;;;;;;;0.82;0.70;;;18.80;22.20;;;;;;5129871;27;20206;-57
2021/03/12 03:35:09;;;;;;;1.00;0.70;;;18.80;22.20;;;;;;5135156;27;20152;-57
2021/03/12 03:37:37;;;;;;;0.70;0.60;;;18.80;22.20;;;;;;5135174;27;20160;-57
2021/03/12 03:40:06;;;;;;;0.80;0.50;;;18.80;22.20;;;;;;5134297;27;20643;-57
2021/03/12 03:42:34;;;;;;;1.05;0.80;;;18.80;22.20;;;;;;5116813;27;20153;-57
2021/03/12 03:45:01;;;;;;;1.52;0.98;;;18.80;22.80;;;;;;5135048;27;20155;-57
2021/03/12 03:47:29;;;;;;;1.05;0.70;;;18.80;22.20;;;;;;5135113;27;20167;-57
2021/03/12 03:49:56;;;;;;;1.02;0.90;;;18.80;22.30;;;;;;5134492;27;20199;-57
2021/03/12 03:52:23;;;;;;;0.60;0.52;;;18.80;22.30;;;;;;5134864;27;20157;-57
2021/03/12 03:54:53;;;;;;;1.08;0.80;;;18.80;22.20;;;;;;5134294;27;20159;-56
2021/03/12 03:57:21;;;;;;;1.50;0.73;;;18.80;22.30;;;;;;5134751;27;20156;-56
2021/03/12 03:59:48;;;;;;;0.85;0.65;;;18.80;22.20;;;;;;5134277;27;20184;-56
2021/03/12 04:02:17;;;;;;;0.70;0.65;;;18.80;22.20;;;;;;5134719;27;20153;-56
2021/03/12 04:04:50;;;;;;;0.70;0.70;;;18.80;22.30;;;;;;5134335;27;20176;-56
2021/03/12 04:07:19;;;;;;;0.77;0.60;;;18.80;22.20;;;;;;5116858;27;20164;-56
2021/03/12 04:09:49;;;;;;;1.08;0.63;;;18.80;22.20;;;;;;5134099;27;20172;-56
2021/03/12 04:12:16;;;;;;;0.90;0.80;;;18.80;22.80;;;;;;5134425;27;20187;-56
2021/03/12 04:14:43;;;;;;;1.63;0.65;;;18.80;22.20;;;;;;5134727;27;20232;-56
2021/03/12 04:17:12;;;;;;;0.60;0.60;;;18.80;22.20;;;;;;5123953;27;20176;-56
2021/03/12 04:19:39;;;;;;;0.65;0.65;;;18.80;22.20;;;;;;5113571;28;20217;-56
2021/03/12 04:22:07;;;;;;;0.93;0.70;;;18.80;22.20;;;;;;5116794;28;20282;-56
2021/03/12 04:24:34;;;;;;;0.88;0.77;;;18.80;22.20;;;;;;5120331;28;20156;-57
2021/03/12 04:27:00;;;;;;;1.02;0.68;;;18.80;22.20;;;;;;5132730;27;20160;-56
2021/03/12 04:29:26;;;;;;;0.70;0.60;;;18.80;22.20;;;;;;5141436;27;20152;-56
2021/03/12 04:31:52;;;;;;;1.33;1.20;;;18.80;22.20;;;;;;5141021;27;20160;-57
2021/03/12 04:34:18;;;;;;;1.10;1.00;;;18.80;22.20;;;;;;5141276;27;20162;-57
2021/03/12 04:36:44;;;;;;;0.70;0.60;;;18.80;22.20;;;;;;5133966;27;20177;-57
2021/03/12 04:39:12;;;;;;;0.85;0.60;;;18.80;22.20;;;;;;5120012;28;20169;-57
2021/03/12 04:41:39;;;;;;;0.70;0.60;;;18.70;22.10;;;;;;5120477;28;20236;-56
2021/03/12 04:44:05;;;;;;;0.80;0.65;;;18.80;22.10;;;;;;5120365;28;20203;-56
2021/03/12 04:46:34;;;;;;;0.90;0.80;;;18.80;22.20;;;;;;5120735;28;20596;-56
2021/03/12 04:49:01;;;;;;;1.80;1.10;;;18.70;22.10;;;;;;5120235;28;20165;-57
2021/03/12 04:51:26;;;;;;;0.98;0.80;;;18.70;22.10;;;;;;5120409;28;20165;-57
2021/03/12 04:53:52;;;;;;;0.77;0.60;;;18.70;22.10;;;;;;5101528;28;20539;-57
2021/03/12 04:56:19;;;;;;;0.80;0.70;;;18.70;22.10;;;;;;5120562;28;20198;-57
2021/03/12 04:58:45;;;;;;;0.93;0.90;;;18.70;22.10;;;;;;5136001;27;20653;-57
2021/03/12 05:01:11;;;;;;;0.80;0.60;;;18.70;22.00;;;;;;5120400;28;20180;-57
2021/03/12 05:03:41;;;;;;;0.95;0.73;;;18.70;22.10;;;;;;5120351;28;20149;-57
2021/03/12 05:06:10;;;;;;;0.82;0.60;;;18.70;22.10;;;;;;5120350;28;20149;-57
2021/03/12 05:08:38;;;;;;;0.60;0.60;;;18.70;22.10;;;;;;5119502;28;20583;-57
2021/03/12 05:11:07;;;;;;;0.70;0.60;;;18.70;22.10;;;;;;5130002;27;20180;-57
2021/03/12 05:13:34;;;;;;;0.93;0.60;;;18.70;22.00;;;;;;5140810;27;20184;-58
2021/03/12 05:16:00;;;;;;;1.23;1.13;;;18.70;22.00;;;;;;5140822;27;20164;-57
2021/03/12 05:18:25;;;;;;;0.70;0.63;;;18.70;22.60;;;;;;5140609;27;20156;-57
2021/03/12 05:20:52;;;;;;;0.77;0.70;;;18.70;22.00;;;;;;5140757;27;20635;-57
2021/03/12 05:23:19;;;;;;;0.60;0.60;;;18.70;22.00;;;;;;5140064;27;20232;-56
2021/03/12 05:25:45;;;;;;;0.80;0.70;;;18.70;22.00;;;;;;5140677;27;20205;-57
2021/03/12 05:28:11;;;;;;;1.33;0.70;;;18.70;22.00;;;;;;5140470;27;20184;-58
2021/03/12 05:30:36;;;;;;;0.90;0.60;;;18.70;22.00;;;;;;5140698;27;20413;-57
2021/03/12 05:33:03;;;;;;;0.63;0.50;;;18.70;22.00;;;;;;5139020;27;20163;-56
2021/03/12 05:35:29;;;;;;;0.85;0.70;;;18.70;22.60;;;;;;5137269;27;20492;-57
2021/03/12 05:37:57;;;;;;;0.87;0.70;;;18.70;22.00;;;;;;5137280;27;20187;-57
2021/03/12 05:40:23;;;;;;;1.05;0.60;;;18.70;22.00;;;;;;5136928;27;20216;-57
2021/03/12 05:42:51;;;;;;;1.67;0.77;;;18.70;22.00;;;;;;5137326;27;20171;-57
2021/03/12 05:45:19;;;;;;;1.15;0.88;;;18.70;22.00;;;;;;5137142;27;20460;-56
2021/03/12 05:47:46;;;;;;;0.68;0.50;;;18.70;22.00;;;;;;5137286;27;20563;-57
2021/03/12 05:50:13;;;;;;;0.70;0.65;;;18.70;22.00;;;;;;5137239;27;20148;-57
2021/03/12 05:52:39;;;;;;;0.90;0.75;;;18.70;22.00;;;;;;5137030;27;20155;-57
2021/03/12 05:55:05;;;;;;;1.00;0.80;;;18.70;22.00;;;;;;5136606;27;20157;-57
2021/03/12 05:57:31;;;;;;;1.02;0.82;;;18.70;22.00;;;;;;5119568;27;20655;-57
2021/03/12 05:59:58;;;;;;;1.03;0.90;;;18.70;22.00;;;;;;5116251;28;20200;-57
2021/03/12 06:02:32;;;;;;;1.05;0.70;;;18.70;22.00;;;;;;5116134;28;20380;-57
2021/03/12 06:04:58;;;;;;;0.80;0.70;;;18.70;22.00;;;;;;5097827;28;20168;-57
2021/03/12 06:07:24;;;;;;;1.00;0.60;;;18.70;22.00;;;;;;5116390;28;20478;-57
2021/03/12 06:09:50;;;;;;;0.80;0.67;;;18.70;22.00;;;;;;5115776;28;20165;-57
2021/03/12 06:12:15;;;;;;;0.90;0.80;;;18.70;22.00;;;;;;5116182;28;20600;-57
2021/03/12 06:14:50;;;;;;;0.80;0.77;;;18.70;22.00;;;;;;5115870;28;20871;-57
2021/03/12 06:17:37;;;;;;;0.80;0.60;;;18.70;22.00;;;;;;5116232;28;20377;-57
2021/03/12 06:20:09;;;;;;;1.40;1.20;;;18.70;22.00;;;;;;5115534;28;20691;-56
2021/03/12 06:22:36;;;;;;;1.15;0.85;;;18.70;22.00;;;;;;5115904;28;20157;-56
2021/03/12 06:25:26;;;;;;;1.13;0.73;;;18.70;22.00;;;;;;5115217;28;20176;-57
2021/03/12 06:27:53;;;;;;;0.70;0.63;;;18.70;22.00;;;;;;5135196;27;20164;-57
2021/03/12 06:30:23;;;;;;;0.80;0.63;;;18.70;22.00;;;;;;5136247;27;20638;-56
2021/03/12 06:32:52;;;;;;;0.80;0.73;;;18.70;22.00;;;;;;5135946;27;20164;-57
2021/03/12 06:35:26;;;;;;;1.60;0.80;;;18.70;22.00;;;;;;5136135;27;20627;-57
2021/03/12 06:37:53;;;;;;;1.17;0.85;;;18.70;22.00;;;;;;5136060;27;20160;-57
2021/03/12 06:40:22;;;;;;;0.82;0.60;;;18.70;22.00;;;;;;5135522;27;20188;-56
2021/03/12 06:43:05;;;;;;;0.93;0.82;;;18.70;22.00;;;;;;5135864;27;20141;-57
2021/03/12 06:45:40;;;;;;;1.17;0.95;;;18.70;22.50;;;;;;5131094;27;20278;-56
2021/03/12 06:48:32;;;;;;;2.55;0.82;;;18.70;21.90;;;;;;5115326;28;20176;-57
2021/03/12 06:51:07;;;;;;;0.90;0.60;;;18.70;21.90;;;;;;5115207;28;20161;-57
2021/03/12 06:53:34;;;;;;;1.33;0.57;;;18.70;21.90;;;;;;5114919;28;20528;-57
2021/03/12 06:56:05;;;;;;;0.70;0.68;;;18.70;21.90;;;;;;5115349;28;20169;-57
2021/03/12 06:58:32;;;;;;;1.10;1.00;;;18.70;21.90;;;;;;5115134;28;20204;-57
2021/03/12 07:00:59;;;;;;;0.80;0.60;;;18.70;21.90;;;;;;5114929;28;20185;-57
2021/03/12 07:03:29;;;;;;;0.60;0.60;;;18.70;21.90;;;;;;5114882;28;20303;-57
2021/03/12 07:06:06;;;;;;;1.02;0.60;;;18.70;21.90;;;;;;5114816;28;20576;-57
2021/03/12 07:08:35;;;;;;;1.00;0.90;;;18.70;21.90;;;;;;5114195;28;20149;-58
2021/03/12 07:11:16;;;;;;;1.33;0.63;;;18.70;21.90;;;;;;5114791;28;20312;-58
2021/03/12 07:13:42;;;;;;;0.75;0.50;;;18.70;21.90;;;;;;5114650;28;20515;-57
2021/03/12 07:16:08;;;;;;;1.10;0.85;;;18.70;21.90;;;;;;5103277;28;20181;-55
2021/03/12 07:18:34;;;;;;;8.07;1.77;;;18.70;22.00;;;;;;5098701;27;20181;-55
2021/03/12 07:21:03;;;;;;;2.83;1.33;;;18.30;18.20;;;;;;5105666;27;20446;-56
2021/03/12 07:23:30;;;;;;;4.05;1.45;;;17.20;18.40;;;;;;5112222;28;20168;-55
2021/03/12 07:25:58;;;;;;;3.20;1.90;;;16.40;19.20;;;;;;5114842;27;20233;-56
2021/03/12 07:28:27;;;;;;;2.88;1.65;;;15.70;19.20;;;;;;5134293;27;20201;-52
2021/03/12 07:30:54;;;;;;;4.38;1.38;;;15.40;19.90;;;;;;5124538;27;20576;-53
2021/03/12 07:33:25;;;;;;;2.15;1.40;;;15.20;20.90;;;;;;5113565;28;20629;-52
2021/03/12 07:35:53;;;;;;;3.25;1.45;;;15.00;20.70;;;;;;5113688;28;20165;-53
2021/03/12 07:38:24;;;;;;;1.55;1.10;;;15.10;24.20;;;;;;5112955;28;20184;-53
2021/03/12 07:40:52;;;;;;;4.13;1.10;;;15.30;25.60;;;;;;5111875;28;20215;-54
2021/03/12 07:43:18;;;;;;;5.40;1.20;;;15.60;25.30;;;;;;5113208;28;20168;-53
2021/03/12 07:45:45;;;;;;;5.30;1.85;;;15.90;25.30;;;;;;5114127;28;20612;-53
2021/03/12 07:48:15;;;;;;;2.70;1.20;;;16.20;25.50;;;;;;5112243;28;20161;-53
2021/03/12 07:50:41;;;;;;;1.70;1.27;;;16.50;24.80;;;;;;5114221;28;20206;-52
2021/03/12 07:53:08;;;;;;;1.58;1.08;;;16.70;24.50;;;;;;5111342;28;20171;-52
2021/03/12 07:55:36;;;;;;;1.88;1.33;;;17.00;24.10;;;;;;5113025;28;20165;-54
2021/03/12 07:58:04;;;;;;;2.00;1.50;;;17.10;24.20;;;;;;5111010;28;20160;-54
2021/03/12 08:00:30;;;;;;;2.38;1.27;;;17.30;23.80;;;;;;5111938;28;20208;-52
2021/03/12 08:03:00;;;;;;;1.70;1.10;;;17.50;23.70;;;;;;5109144;28;20191;-53
2021/03/12 08:05:40;;;;;;;1.50;1.00;;;17.60;23.50;;;;;;5111509;28;20292;-53
2021/03/12 08:08:33;;;;;;;1.80;1.05;;;17.70;23.30;;;;;;5097734;28;20181;-52
2021/03/12 08:11:16;;;;;;;2.55;1.50;;;17.80;23.10;;;;;;5110046;28;20177;-52
2021/03/12 08:13:42;;;;;;;3.80;1.35;;;17.90;23.10;;;;;;5092557;28;20476;-54
2021/03/12 08:16:08;;;;;;;1.30;1.20;;;18.00;22.80;;;;;;5113771;28;20165;-53
2021/03/12 08:18:34;;;;;;;2.58;1.00;;;18.10;23.20;;;;;;5111842;28;20177;-54
2021/03/12 08:21:20;;;;;;;3.10;1.33;;;18.20;23.70;;;;;;5113496;28;20521;-54
2021/03/12 08:23:45;;;;;;;5.13;1.35;;;18.30;23.80;;;;;;5112969;28;20659;-54
2021/03/12 08:26:11;;;;;;;4.10;1.10;;;18.40;23.60;;;;;;5108543;28;20173;-54
2021/03/12 08:28:42;;;;;;;3.70;1.20;;;18.40;23.40;;;;;;5091477;28;20173;-53
2021/03/12 08:31:07;;;;;;;1.23;1.13;;;18.50;23.10;;;;;;5107640;28;20668;-54
2021/03/12 08:33:34;;;;;;;5.60;1.40;;;18.50;23.20;;;;;;5090916;28;20181;-54
2021/03/12 08:36:00;;;;;;;2.17;1.25;;;18.60;23.20;;;;;;5110705;28;20169;-55
2021/03/12 08:38:26;;;;;;;2.47;1.20;;;18.60;23.30;;;;;;5110712;28;20173;-53
2021/03/12 08:41:04;;;;;;;3.35;1.52;;;18.70;23.30;;;;;;5111681;28;20549;-53
2021/03/12 08:43:31;;;;;;;3.05;1.30;;;18.70;23.30;;;;;;5113236;28;20187;-54
2021/03/12 08:46:16;;;;;;;3.55;1.48;;;18.80;23.30;;;;;;5111842;28;20173;-52
2021/03/12 08:48:44;;;;;;;2.30;1.30;;;18.80;23.30;;;;;;5093222;28;20501;-53
2021/03/12 08:51:17;;;;;;;1.83;1.30;;;18.80;23.30;;;;;;5095010;28;20165;-52
2021/03/12 08:54:00;;;;;;;2.25;1.10;;;18.80;23.20;;;;;;5111926;28;20172;-53
2021/03/12 08:56:34;;;;;;;4.10;1.25;;;18.80;23.20;;;;;;5112157;28;20168;-53
2021/03/12 08:59:01;;;;;;;1.50;0.88;;;18.90;23.30;;;;;;5110348;28;20188;-54
2021/03/12 09:01:30;;;;;;;3.85;1.52;;;18.90;23.20;;;;;;5112789;28;20189;-52
2021/03/12 09:04:01;;;;;;;2.13;1.33;;;18.90;23.20;;;;;;5112750;28;20153;-52
2021/03/12 09:06:32;;;;;;;1.80;1.13;;;18.90;23.10;;;;;;5112791;28;20157;-52
2021/03/12 09:08:58;;;;;;;1.23;0.90;;;19.00;23.20;;;;;;5110632;28;20600;-52
2021/03/12 09:11:28;;;;;;;1.02;0.93;;;19.00;23.00;;;;;;5117047;28;20668;-53
2021/03/12 09:13:57;;;;;;;2.10;1.00;;;19.00;23.50;;;;;;5098995;28;20161;-52
2021/03/12 09:16:28;;;;;;;2.30;1.20;;;19.10;22.90;;;;;;5116619;28;20226;-54
2021/03/12 09:18:55;;;;;;;2.00;1.13;;;19.10;22.90;;;;;;5113713;28;20729;-54
2021/03/12 09:21:23;;;;;;;2.15;1.13;;;19.10;22.80;;;;;;5119471;27;20239;-52
2021/03/12 09:23:51;;;;;;;2.50;1.10;;;19.20;22.80;;;;;;5115278;28;20214;-53
2021/03/12 09:26:22;;;;;;;1.40;1.00;;;19.20;22.80;;;;;;5116870;28;20158;-53
2021/03/12 09:28:51;;;;;;;3.42;1.40;;;19.20;22.80;;;;;;5102961;28;20179;-54
2021/03/12 09:31:18;;;;;;;3.92;1.00;;;19.20;22.70;;;;;;5115198;28;20173;-55
2021/03/12 09:33:54;;;;;;;1.10;1.00;;;19.20;22.70;;;;;;5115961;28;20260;-55
2021/03/12 09:36:33;;;;;;;2.17;1.20;;;19.20;22.60;;;;;;5097861;28;20176;-54
2021/03/12 09:39:20;;;;;;;3.25;1.30;;;19.20;23.20;;;;;;5096929;28;20176;-55
2021/03/12 09:41:56;;;;;;;1.55;1.10;;;19.30;22.60;;;;;;5114803;28;20207;-53
2021/03/12 09:44:23;;;;;;;1.00;0.90;;;19.30;22.70;;;;;;5116174;28;20161;-54
2021/03/12 09:47:04;;;;;;;1.90;1.27;;;19.30;22.70;;;;;;5098384;28;20165;-55
2021/03/12 09:49:33;;;;;;;1.20;0.90;;;19.30;22.60;;;;;;5114427;28;20172;-53
2021/03/12 09:52:05;;;;;;;1.20;1.00;;;19.30;22.60;;;;;;5114541;28;20152;-54
2021/03/12 09:54:32;;;;;;;2.28;1.38;;;19.30;22.90;;;;;;5115827;28;20172;-53
2021/03/12 09:56:58;;;;;;;2.15;1.30;;;19.30;22.60;;;;;;5115542;28;20236;-52
2021/03/12 09:59:26;;;;;;;2.15;1.00;;;19.40;22.60;;;;;;5114147;28;20617;-54
2021/03/12 10:01:52;;;;;;;2.05;1.50;;;19.40;22.60;;;;;;5115573;28;20195;-54
2021/03/12 10:04:57;;;;;;;2.88;1.23;;;19.40;22.60;;;;;;5113407;28;20184;-53
2021/03/12 10:07:39;;;;;;;4.05;1.52;;;19.40;22.60;;;;;;5064649;28;20227;-53
2021/03/12 10:10:34;;;;;;;2.85;1.17;;;19.40;22.60;;;;;;5115491;28;20206;-54
2021/03/12 10:13:06;;;;;;;5.85;1.45;;;19.50;22.60;;;;;;5112459;28;20656;-52
2021/03/12 10:15:39;;;;;;;1.67;0.95;;;19.50;23.20;;;;;;5090871;28;20177;-53
2021/03/12 10:18:22;;;;;;;1.42;1.17;;;19.50;22.70;;;;;;5099727;28;20184;-53
2021/03/12 10:20:50;;;;;;;2.50;1.20;;;19.50;23.00;;;;;;5115392;28;20216;-52
2021/03/12 10:23:17;;;;;;;1.80;1.00;;;19.60;22.90;;;;;;5114262;28;20230;-53
2021/03/12 10:25:46;;;;;;;1.35;0.80;;;19.70;22.80;;;;;;5096716;27;20169;-52
2021/03/12 10:28:19;;;;;;;1.90;1.30;;;19.80;22.50;;;;;;5127235;27;20194;-52
2021/03/12 10:30:50;;;;;;;5.85;1.65;;;19.80;22.50;;;;;;5115481;28;20604;-54
2021/03/12 10:33:20;;;;;;;1.60;1.00;;;19.90;22.60;;;;;;5114493;28;20160;-54
2021/03/12 10:35:48;;;;;;;5.90;1.50;;;20.00;22.40;;;;;;5112997;28;20169;-54
2021/03/12 10:38:25;;;;;;;2.58;0.90;;;20.10;22.40;;;;;;5113177;28;20219;-53
2021/03/12 10:40:58;;;;;;;1.10;1.00;;;20.20;22.20;;;;;;5114799;28;20222;-53
2021/03/12 10:43:29;;;;;;;3.00;1.20;;;20.20;21.80;;;;;;5114401;28;20217;-52
2021/03/12 10:45:57;;;;;;;2.97;1.40;;;20.30;21.60;;;;;;5114486;28;20186;-53
2021/03/12 10:48:28;;;;;;;2.70;1.45;;;20.40;21.60;;;;;;5112543;28;20168;-54
2021/03/12 10:51:03;;;;;;;2.47;1.00;;;20.40;21.30;;;;;;5113394;28;20172;-53
2021/03/12 10:53:30;;;;;;;3.45;1.20;;;20.50;21.60;;;;;;5095685;28;20180;-54
2021/03/12 10:56:04;;;;;;;1.70;0.95;;;20.50;21.40;;;;;;5115088;28;20227;-53
2021/03/12 10:58:37;;;;;;;2.15;1.05;;;20.50;21.30;;;;;;5111533;28;20223;-54
2021/03/12 11:01:03;;;;;;;1.98;0.90;;;20.60;21.40;;;;;;5114773;28;20644;-55
2021/03/12 11:03:28;;;;;;;2.00;1.37;;;20.60;21.50;;;;;;5096945;28;20233;-54
2021/03/12 11:05:54;;;;;;;2.57;1.10;;;20.60;21.40;;;;;;5114544;28;20164;-54
2021/03/12 11:08:20;;;;;;;2.50;1.40;;;20.60;21.30;;;;;;5093247;28;20258;-54
2021/03/12 11:10:46;;;;;;;3.20;1.67;;;20.70;21.20;;;;;;5114288;28;20206;-53
2021/03/12 11:13:12;;;;;;;1.75;0.90;;;20.70;21.20;;;;;;5114106;28;20401;-55
2021/03/12 11:15:37;;;;;;;3.77;1.73;;;20.70;21.10;;;;;;5105032;28;20177;-56
2021/03/12 11:18:03;;;;;;;1.80;1.00;;;20.70;21.00;;;;;;5104989;28;20183;-56
2021/03/12 11:20:29;;;;;;;12.07;1.73;;;20.80;21.00;;;;;;5087553;28;20308;-55
2021/03/12 11:22:55;;;;;;;6.33;1.77;;;20.80;21.20;;;;;;5109387;28;20239;-53
2021/03/12 11:25:21;;;;;;;2.88;1.23;;;20.90;21.10;;;;;;5113886;28;20592;-52
2021/03/12 11:27:49;;;;;;;1.53;0.83;;;20.90;20.90;;;;;;5105778;28;20201;-52
2021/03/12 11:30:18;;;;;;;2.28;0.90;;;20.90;20.40;;;;;;5112903;28;20177;-52
2021/03/12 11:32:43;;;;;;;1.60;1.08;;;21.00;20.90;;;;;;5112261;28;20168;-53
2021/03/12 11:35:10;;;;;;;4.90;1.40;;;21.10;21.00;;;;;;5114084;28;20181;-53
2021/03/12 11:37:36;;;;;;;4.38;1.08;;;21.10;20.90;;;;;;5113893;28;20184;-52
2021/03/12 11:40:04;;;;;;;1.67;1.10;;;21.10;20.70;;;;;;5111724;28;20655;-54
2021/03/12 11:42:30;;;;;;;2.85;1.20;;;21.10;20.60;;;;;;5111893;28;20504;-52
2021/03/12 11:44:55;;;;;;;10.07;1.53;;;21.20;20.60;;;;;;5114043;28;20252;-52
2021/03/12 11:47:21;;;;;;;2.30;1.20;;;21.20;20.80;;;;;;5113750;28;20184;-51
2021/03/12 11:49:49;;;;;;;4.00;1.30;;;21.20;21.10;;;;;;5112539;28;20180;-52
2021/03/12 11:52:15;;;;;;;2.45;1.40;;;21.20;20.80;;;;;;5111101;28;20263;-53
2021/03/12 11:54:41;;;;;;;1.80;1.47;;;21.20;20.60;;;;;;5109822;27;20285;-55
2021/03/12 11:57:07;;;;;;;3.60;0.88;;;21.20;20.50;;;;;;5122615;27;20397;-55
2021/03/12 11:59:33;;;;;;;2.22;0.98;;;21.30;20.80;;;;;;5112310;28;20180;-55
2021/03/12 12:02:00;;;;;;;1.70;1.00;;;21.30;20.60;;;;;;5113528;28;20157;-54
2021/03/12 12:04:27;;;;;;;1.35;1.15;;;21.30;20.60;;;;;;5111314;28;20389;-53
2021/03/12 12:06:58;;;;;;;4.05;1.17;;;21.30;20.60;;;;;;5113247;28;20497;-53
2021/03/12 12:09:24;;;;;;;2.20;1.08;;;21.20;20.40;;;;;;5111730;28;20161;-54
2021/03/12 12:11:50;;;;;;;2.57;1.13;;;21.20;20.50;;;;;;5108458;28;20178;-54
2021/03/12 12:14:16;;;;;;;1.77;1.60;;;21.30;20.50;;;;;;5099241;28;20419;-53
2021/03/12 12:16:41;;;;;;;2.67;1.00;;;21.30;20.40;;;;;;5091585;28;20168;-51
2021/03/12 12:19:11;;;;;;;2.17;1.10;;;21.30;20.40;;;;;;5111962;28;20304;-52
2021/03/12 12:21:37;;;;;;;1.25;1.15;;;21.30;20.30;;;;;;5112885;28;20185;-53
2021/03/12 12:24:07;;;;;;;2.97;1.20;;;21.40;20.30;;;;;;5113008;28;20171;-52
2021/03/12 12:26:36;;;;;;;1.95;1.08;;;21.40;20.90;;;;;;5110621;28;20200;-51
2021/03/12 12:29:04;;;;;;;1.63;0.98;;;21.40;20.40;;;;;;5111844;28;20218;-52
2021/03/12 12:31:31;;;;;;;1.65;1.10;;;21.40;20.40;;;;;;5113125;28;20187;-50
2021/03/12 12:33:57;;;;;;;1.58;1.02;;;21.40;20.80;;;;;;5112959;28;20165;-51
2021/03/12 12:36:25;;;;;;;2.08;1.30;;;21.40;20.20;;;;;;5111335;28;20197;-52
2021/03/12 12:38:51;;;;;;;1.83;1.45;;;21.40;20.30;;;;;;5111070;28;20222;-53
2021/03/12 12:41:17;;;;;;;0.85;0.80;;;21.50;20.40;;;;;;5094142;28;20185;-53
2021/03/12 12:43:43;;;;;;;1.80;1.20;;;21.40;20.30;;;;;;5114384;28;20175;-53
2021/03/12 12:46:08;;;;;;;2.47;1.17;;;21.40;20.30;;;;;;5117920;28;20177;-53
2021/03/12 12:48:34;;;;;;;1.00;0.80;;;21.40;20.30;;;;;;5095873;28;20165;-53
2021/03/12 12:51:00;;;;;;;4.73;1.30;;;21.40;20.30;;;;;;5117266;28;20654;-53
2021/03/12 12:53:25;;;;;;;1.77;1.03;;;21.40;20.30;;;;;;5116324;28;20551;-53
2021/03/12 12:55:51;;;;;;;4.10;1.30;;;21.40;20.30;;;;;;5110994;27;20174;-54
2021/03/12 12:58:18;;;;;;;3.77;1.10;;;21.40;20.20;;;;;;5113016;28;20229;-54